createdAt,value
2024-02-22T00:00:14.233Z,9.71
2024-02-22T00:03:01.293Z,9.74
2024-02-22T00:05:28.281Z,9.73
2024-02-22T00:07:55.476Z,9.69
2024-02-22T00:10:22.567Z,9.72
2024-02-22T00:12:49.709Z,9.69
2024-02-22T00:15:16.593Z,9.69
2024-02-22T00:17:44.058Z,9.65
2024-02-22T00:20:11.651Z,9.66
2024-02-22T00:22:38.870Z,9.75
2024-02-22T00:25:06.339Z,9.73
2024-02-22T00:27:34.943Z,9.72
2024-02-22T00:30:01.906Z,9.68
2024-02-22T00:32:29.245Z,9.74
2024-02-22T00:34:56.199Z,9.66
2024-02-22T00:37:23.490Z,9.66
2024-02-22T00:39:50.389Z,9.73
2024-02-22T00:42:17.526Z,9.70
2024-02-22T00:44:44.380Z,9.68
2024-02-22T00:47:11.830Z,9.74
2024-02-22T00:49:38.986Z,9.73
2024-02-22T00:52:09.087Z,9.76
2024-02-22T00:54:36.271Z,9.74
2024-02-22T00:57:03.404Z,9.75
2024-02-22T00:59:33.523Z,9.69
2024-02-22T01:02:01.289Z,9.68
2024-02-22T01:04:28.471Z,9.71
2024-02-22T01:06:57.228Z,9.72
2024-02-22T01:09:24.085Z,9.70
2024-02-22T01:11:51.369Z,9.69
2024-02-22T01:14:20.999Z,9.73
2024-02-22T01:16:51.091Z,9.80
2024-02-22T01:19:18.557Z,9.76
2024-02-22T01:21:45.840Z,9.80
2024-02-22T01:24:12.740Z,9.76
2024-02-22T01:26:39.849Z,9.72
2024-02-22T01:29:06.715Z,9.71
2024-02-22T01:31:34.049Z,9.73
2024-02-22T01:34:01.066Z,9.76
2024-02-22T01:36:28.226Z,9.71
2024-02-22T01:38:55.037Z,9.78
2024-02-22T01:41:23.548Z,9.74
2024-02-22T01:43:51.487Z,9.71
2024-02-22T01:46:18.933Z,9.82
2024-02-22T01:48:45.928Z,9.82
2024-02-22T01:51:13.126Z,9.78
2024-02-22T01:53:39.985Z,9.75
2024-02-22T01:56:07.455Z,9.78
2024-02-22T01:58:36.141Z,9.77
2024-02-22T02:01:04.815Z,9.80
2024-02-22T02:03:31.845Z,9.79
2024-02-22T02:05:59.040Z,9.76
2024-02-22T02:08:25.886Z,9.87
2024-02-22T02:10:53.162Z,9.80
2024-02-22T02:13:19.981Z,9.72
2024-02-22T02:15:47.125Z,9.78
2024-02-22T02:18:14.130Z,9.82
2024-02-22T02:20:53.416Z,9.80
2024-02-22T02:23:28.696Z,9.76
2024-02-22T02:25:56.035Z,9.72
2024-02-22T02:28:22.925Z,9.71
2024-02-22T02:30:50.091Z,9.74
2024-02-22T02:33:17.080Z,9.87
2024-02-22T02:35:44.601Z,9.89
2024-02-22T02:38:11.870Z,9.76
2024-02-22T02:40:39.177Z,9.72
2024-02-22T02:43:06.615Z,9.74
2024-02-22T02:45:34.288Z,9.80
2024-02-22T02:48:01.199Z,9.79
2024-02-22T02:50:28.422Z,9.79
2024-02-22T02:52:55.294Z,9.75
2024-02-22T02:55:22.470Z,9.83
2024-02-22T02:57:51.124Z,9.84
2024-02-22T03:00:18.515Z,9.81
2024-02-22T03:02:45.305Z,9.79
2024-02-22T03:05:12.692Z,9.77
2024-02-22T03:07:39.693Z,9.79
2024-02-22T03:10:07.228Z,9.75
2024-02-22T03:12:34.283Z,9.81
2024-02-22T03:15:04.085Z,9.83
2024-02-22T03:17:30.902Z,9.89
2024-02-22T03:19:58.274Z,9.97
2024-02-22T03:22:25.267Z,9.84
2024-02-22T03:24:52.507Z,9.94
2024-02-22T03:27:19.374Z,9.97
2024-02-22T03:29:47.737Z,9.95
2024-02-22T03:32:15.474Z,9.98
2024-02-22T03:34:43.251Z,9.96
2024-02-22T03:37:10.857Z,9.96
2024-02-22T03:39:39.184Z,9.96
2024-02-22T03:42:06.019Z,9.94
2024-02-22T03:44:33.121Z,9.95
2024-02-22T03:46:59.932Z,9.95
2024-02-22T03:49:27.024Z,9.94
2024-02-22T03:51:53.930Z,10.01
2024-02-22T03:54:21.027Z,9.96
2024-02-22T03:56:47.861Z,9.97
2024-02-22T03:59:15.148Z,9.96
2024-02-22T04:01:42.152Z,9.98
2024-02-22T04:04:09.508Z,10.00
2024-02-22T04:06:39.810Z,9.96
2024-02-22T04:09:08.194Z,10.02
2024-02-22T04:11:35.216Z,9.99
2024-02-22T04:14:02.490Z,10.06
2024-02-22T04:16:29.348Z,10.09
2024-02-22T04:18:56.677Z,10.07
2024-02-22T04:21:23.624Z,10.05
2024-02-22T04:23:50.754Z,10.02
2024-02-22T04:26:17.644Z,10.07
2024-02-22T04:28:44.897Z,10.03
2024-02-22T04:31:12.026Z,10.07
2024-02-22T04:33:39.129Z,10.05
2024-02-22T04:36:07.251Z,10.09
2024-02-22T04:38:34.650Z,10.10
2024-02-22T04:41:01.677Z,10.11
2024-02-22T04:43:28.795Z,10.09
2024-02-22T04:45:56.275Z,10.13
2024-02-22T04:48:23.560Z,10.08
2024-02-22T04:50:50.438Z,10.20
2024-02-22T04:53:17.817Z,10.12
2024-02-22T04:55:44.716Z,10.14
2024-02-22T04:58:12.139Z,10.15
2024-02-22T05:00:40.207Z,10.14
2024-02-22T05:03:07.313Z,10.19
2024-02-22T05:05:34.318Z,10.14
2024-02-22T05:08:02.682Z,10.10
2024-02-22T05:10:31.211Z,10.19
2024-02-22T05:12:58.547Z,10.13
2024-02-22T05:15:25.317Z,10.23
2024-02-22T05:17:52.517Z,10.15
2024-02-22T05:20:19.402Z,10.15
2024-02-22T05:22:46.822Z,10.15
2024-02-22T05:25:13.657Z,10.18
2024-02-22T05:27:41.286Z,10.21
2024-02-22T05:30:08.741Z,10.17
2024-02-22T05:32:35.909Z,10.17
2024-02-22T05:35:02.865Z,10.15
2024-02-22T05:37:31.598Z,10.18
2024-02-22T05:40:00.154Z,10.17
2024-02-22T05:42:27.387Z,10.09
2024-02-22T05:44:54.243Z,10.15
2024-02-22T05:47:21.481Z,10.21
2024-02-22T05:49:49.232Z,10.20
2024-02-22T05:52:16.410Z,10.19
2024-02-22T05:54:43.205Z,10.21
2024-02-22T05:57:12.616Z,10.15
2024-02-22T05:59:40.379Z,10.18
2024-02-22T06:02:07.533Z,10.18
2024-02-22T06:04:34.530Z,10.22
2024-02-22T06:07:01.782Z,10.19
2024-02-22T06:09:28.649Z,10.17
2024-02-22T06:11:55.886Z,10.15
2024-02-22T06:14:22.847Z,10.19
2024-02-22T06:16:50.578Z,10.24
2024-02-22T06:19:17.533Z,10.19
2024-02-22T06:21:44.782Z,10.20
2024-02-22T06:24:11.619Z,10.20
2024-02-22T06:26:39.210Z,10.31
2024-02-22T06:29:06.186Z,10.29
2024-02-22T06:31:33.571Z,10.30
2024-02-22T06:34:01.781Z,10.33
2024-02-22T06:36:29.529Z,10.33
2024-02-22T06:38:56.396Z,10.35
2024-02-22T06:41:23.627Z,10.28
2024-02-22T06:43:50.449Z,10.31
2024-02-22T06:46:18.866Z,10.29
2024-02-22T06:48:46.772Z,10.31
2024-02-22T06:51:14.136Z,10.34
2024-02-22T06:53:41.167Z,10.40
2024-02-22T06:56:08.818Z,10.45
2024-02-22T06:58:36.262Z,10.42
2024-02-22T07:01:03.659Z,10.36
2024-02-22T07:03:30.562Z,10.37
2024-02-22T07:05:57.699Z,10.33
2024-02-22T07:08:24.968Z,10.36
2024-02-22T07:10:52.266Z,10.43
2024-02-22T07:13:19.201Z,10.41
2024-02-22T07:15:46.297Z,10.39
2024-02-22T07:18:13.260Z,10.49
2024-02-22T07:20:40.480Z,10.47
2024-02-22T07:23:07.397Z,10.50
2024-02-22T07:25:34.604Z,10.48
2024-02-22T07:28:01.481Z,10.52
2024-02-22T07:30:28.862Z,10.51
2024-02-22T07:32:55.930Z,10.52
2024-02-22T07:35:24.305Z,10.51
2024-02-22T07:37:51.226Z,10.54
2024-02-22T07:40:18.408Z,10.57
2024-02-22T07:42:45.273Z,10.59
2024-02-22T07:45:12.530Z,10.64
2024-02-22T07:47:40.553Z,10.61
2024-02-22T07:50:12.276Z,10.70
2024-02-22T07:52:40.906Z,10.72
2024-02-22T07:55:08.916Z,10.79
2024-02-22T07:57:36.706Z,10.76
2024-02-22T08:00:04.837Z,10.80
2024-02-22T08:02:31.780Z,10.84
2024-02-22T08:04:59.575Z,10.85
2024-02-22T08:07:26.555Z,10.85
2024-02-22T08:09:53.706Z,10.93
2024-02-22T08:12:20.687Z,10.94
2024-02-22T08:14:48.833Z,10.95
2024-02-22T08:17:18.972Z,11.03
2024-02-22T08:19:48.931Z,11.01
2024-02-22T08:22:17.066Z,11.06
2024-02-22T08:24:44.221Z,11.06
2024-02-22T08:27:11.611Z,11.06
2024-02-22T08:29:38.728Z,11.07
2024-02-22T08:32:07.016Z,11.12
2024-02-22T08:34:34.285Z,11.11
2024-02-22T08:37:01.295Z,11.05
2024-02-22T08:39:28.459Z,11.18
2024-02-22T08:41:55.240Z,11.23
2024-02-22T08:44:22.763Z,11.20
2024-02-22T08:46:49.676Z,11.25
2024-02-22T08:49:17.474Z,11.25
2024-02-22T08:51:44.329Z,11.25
2024-02-22T08:54:11.501Z,11.30
2024-02-22T08:56:38.369Z,11.35
2024-02-22T08:59:05.852Z,11.39
2024-02-22T09:01:35.492Z,11.38
2024-02-22T09:04:02.860Z,11.48
2024-02-22T09:06:29.823Z,11.51
2024-02-22T09:08:57.564Z,11.56
2024-02-22T09:11:25.431Z,11.57
2024-02-22T09:13:52.712Z,11.60
2024-02-22T09:16:19.758Z,11.63
2024-02-22T09:18:46.946Z,11.66
2024-02-22T09:21:15.471Z,11.76
2024-02-22T09:23:45.941Z,11.80
2024-02-22T09:26:14.740Z,11.81
2024-02-22T09:28:42.364Z,11.88
2024-02-22T09:31:09.190Z,11.91
2024-02-22T09:33:36.354Z,11.92
2024-02-22T09:36:03.746Z,11.95
2024-02-22T09:38:35.296Z,12.00
2024-02-22T09:41:02.816Z,12.01
2024-02-22T09:43:30.285Z,12.01
2024-02-22T09:45:57.103Z,12.07
2024-02-22T09:48:24.448Z,12.11
2024-02-22T09:50:51.429Z,12.09
2024-02-22T09:53:19.808Z,12.14
2024-02-22T09:55:46.897Z,12.15
2024-02-22T09:58:16.111Z,12.13
2024-02-22T10:00:43.080Z,12.29
2024-02-22T10:03:11.528Z,12.21
2024-02-22T10:05:39.134Z,12.27
2024-02-22T10:08:13.398Z,12.30
2024-02-22T10:10:41.741Z,12.32
2024-02-22T10:13:18.820Z,12.34
2024-02-22T10:15:46.732Z,12.37
2024-02-22T10:18:13.925Z,12.41
2024-02-22T10:20:44.052Z,12.49
2024-02-22T10:23:12.852Z,12.48
2024-02-22T10:25:41.016Z,12.51
2024-02-22T10:28:09.526Z,12.52
2024-02-22T10:30:36.543Z,12.57
2024-02-22T10:33:04.093Z,12.56
2024-02-22T10:35:31.685Z,12.57
2024-02-22T10:37:58.969Z,12.63
2024-02-22T10:40:27.453Z,12.65
2024-02-22T10:42:54.720Z,12.67
2024-02-22T10:45:22.752Z,12.75
2024-02-22T10:47:52.914Z,12.76
2024-02-22T10:50:23.265Z,12.77
2024-02-22T10:52:53.241Z,12.83
2024-02-22T10:55:20.123Z,12.85
2024-02-22T10:57:49.204Z,12.87
2024-02-22T11:00:16.607Z,12.89
2024-02-22T11:02:47.162Z,12.98
2024-02-22T11:05:14.309Z,12.99
2024-02-22T11:07:49.535Z,13.03
2024-02-22T11:10:16.380Z,12.98
2024-02-22T11:12:46.757Z,13.00
2024-02-22T11:15:15.468Z,13.10
2024-02-22T11:17:56.891Z,13.12
2024-02-22T11:20:36.279Z,13.16
2024-02-22T11:23:14.049Z,13.21
2024-02-22T11:25:41.198Z,13.27
2024-02-22T11:28:09.534Z,13.23
2024-02-22T11:30:36.326Z,13.33
2024-02-22T11:33:03.821Z,13.39
2024-02-22T11:35:30.934Z,13.32
2024-02-22T11:37:59.326Z,13.32
2024-02-22T11:40:27.631Z,13.34
2024-02-22T11:42:56.371Z,13.34
2024-02-22T11:45:23.263Z,13.38
2024-02-22T11:47:50.461Z,13.43
2024-02-22T11:50:17.661Z,13.46
2024-02-22T11:52:51.281Z,13.57
2024-02-22T11:55:18.320Z,13.52
2024-02-22T11:57:45.599Z,13.51
2024-02-22T12:00:12.640Z,13.48
2024-02-22T12:02:39.950Z,13.46
2024-02-22T12:05:08.177Z,13.57
2024-02-22T12:07:35.360Z,13.58
2024-02-22T12:10:02.225Z,13.64
2024-02-22T12:12:29.470Z,13.61
2024-02-22T12:15:00.018Z,13.63
2024-02-22T12:17:27.663Z,13.56
2024-02-22T12:19:55.695Z,13.64
2024-02-22T12:22:23.450Z,13.65
2024-02-22T12:24:50.634Z,13.62
2024-02-22T12:27:20.818Z,13.60
2024-02-22T12:29:51.380Z,13.63
2024-02-22T12:32:20.242Z,13.65
2024-02-22T12:34:47.178Z,13.63
2024-02-22T12:37:15.433Z,13.69
2024-02-22T12:39:42.406Z,13.66
2024-02-22T12:42:09.788Z,13.37
2024-02-22T12:44:36.658Z,13.34
2024-02-22T12:47:05.436Z,13.36
2024-02-22T12:49:34.249Z,13.45
2024-02-22T12:52:01.810Z,13.35
2024-02-22T12:54:28.818Z,13.36
2024-02-22T12:56:56.056Z,13.34
2024-02-22T12:59:23.154Z,13.36
2024-02-22T13:01:51.035Z,13.33
2024-02-22T13:04:18.144Z,13.36
2024-02-22T13:06:45.332Z,13.36
2024-02-22T13:09:12.705Z,13.39
2024-02-22T13:11:40.366Z,13.38
2024-02-22T13:14:07.627Z,13.38
2024-02-22T13:16:35.972Z,13.40
2024-02-22T13:19:03.174Z,13.36
2024-02-22T13:21:30.363Z,13.40
2024-02-22T13:23:57.265Z,13.36
2024-02-22T13:26:24.694Z,13.36
2024-02-22T13:28:52.046Z,13.35
2024-02-22T13:31:20.859Z,13.41
2024-02-22T13:33:49.378Z,13.38
2024-02-22T13:36:17.350Z,13.40
2024-02-22T13:38:44.338Z,13.34
2024-02-22T13:41:13.413Z,13.34
2024-02-22T13:43:41.840Z,13.40
2024-02-22T13:46:09.081Z,13.50
2024-02-22T13:48:37.839Z,13.66
2024-02-22T13:51:05.872Z,13.68
2024-02-22T13:53:32.954Z,13.69
2024-02-22T13:56:00.459Z,13.73
2024-02-22T13:58:27.446Z,13.65
2024-02-22T14:00:54.680Z,13.68
2024-02-22T14:03:21.659Z,13.59
2024-02-22T14:05:52.761Z,13.38
2024-02-22T14:08:22.007Z,13.60
2024-02-22T14:10:49.775Z,13.59
2024-02-22T14:13:18.099Z,13.55
2024-02-22T14:15:47.499Z,13.53
2024-02-22T14:18:14.377Z,13.53
2024-02-22T14:20:43.564Z,13.46
2024-02-22T14:23:13.857Z,13.47
2024-02-22T14:25:44.663Z,13.44
2024-02-22T14:28:11.552Z,13.44
2024-02-22T14:30:38.732Z,13.38
2024-02-22T14:33:05.993Z,13.69
2024-02-22T14:35:33.237Z,13.59
2024-02-22T14:38:00.313Z,13.57
2024-02-22T14:40:27.518Z,13.64
2024-02-22T14:42:54.435Z,13.58
2024-02-22T14:45:21.900Z,13.54
2024-02-22T14:47:48.784Z,13.53
2024-02-22T14:50:17.914Z,13.49
2024-02-22T14:52:44.823Z,13.46
2024-02-22T14:55:12.461Z,13.45
2024-02-22T14:57:39.360Z,13.40
2024-02-22T15:00:10.053Z,13.38
2024-02-22T15:02:37.511Z,13.35
2024-02-22T15:05:05.486Z,13.31
2024-02-22T15:07:32.485Z,13.28
2024-02-22T15:09:59.629Z,13.26
2024-02-22T15:12:26.465Z,13.23
2024-02-22T15:14:53.937Z,13.17
2024-02-22T15:17:24.000Z,13.15
2024-02-22T15:19:51.648Z,13.12
2024-02-22T15:22:18.906Z,13.09
2024-02-22T15:24:46.384Z,13.07
2024-02-22T15:27:13.294Z,13.06
2024-02-22T15:29:40.560Z,13.04
2024-02-22T15:32:07.815Z,13.01
2024-02-22T15:34:35.684Z,13.02
2024-02-22T15:37:03.224Z,12.96
2024-02-22T15:39:30.415Z,12.93
2024-02-22T15:41:57.261Z,12.91
2024-02-22T15:44:25.014Z,12.85
2024-02-22T15:46:52.054Z,12.91
2024-02-22T15:49:19.440Z,12.93
2024-02-22T15:51:46.377Z,12.90
2024-02-22T15:54:14.144Z,12.84
2024-02-22T15:56:41.227Z,12.84
2024-02-22T15:59:08.677Z,12.82
2024-02-22T16:01:35.611Z,12.77
2024-02-22T16:04:04.471Z,12.81
2024-02-22T16:06:32.632Z,12.75
2024-02-22T16:09:00.373Z,12.70
2024-02-22T16:11:27.791Z,12.71
2024-02-22T16:13:59.183Z,12.68
2024-02-22T16:16:26.396Z,12.59
2024-02-22T16:18:59.491Z,12.62
2024-02-22T16:21:26.628Z,12.56
2024-02-22T16:23:55.909Z,12.57
2024-02-22T16:26:23.322Z,12.54
2024-02-22T16:28:50.592Z,12.56
2024-02-22T16:31:17.619Z,12.53
2024-02-22T16:33:46.179Z,12.53
2024-02-22T16:36:13.842Z,12.46
2024-02-22T16:38:49.372Z,12.45
2024-02-22T16:41:28.056Z,12.40
2024-02-22T16:43:55.656Z,12.41
2024-02-22T16:46:22.741Z,12.42
2024-02-22T16:48:50.096Z,12.43
2024-02-22T16:51:19.764Z,12.41
2024-02-22T16:53:49.746Z,12.34
2024-02-22T16:56:17.366Z,12.34
2024-02-22T16:58:44.763Z,12.34
2024-02-22T17:01:11.846Z,12.33
2024-02-22T17:03:39.270Z,12.34
2024-02-22T17:06:06.394Z,12.28
2024-02-22T17:08:33.678Z,12.33
2024-02-22T17:11:00.933Z,12.31
2024-02-22T17:13:31.257Z,12.31
2024-02-22T17:15:59.391Z,12.27
2024-02-22T17:18:28.236Z,12.25
2024-02-22T17:20:56.499Z,12.28
2024-02-22T17:23:24.269Z,12.15
2024-02-22T17:25:51.513Z,12.18
2024-02-22T17:28:20.057Z,12.19
2024-02-22T17:30:47.043Z,12.16
2024-02-22T17:33:15.028Z,12.13
2024-02-22T17:35:42.014Z,12.11
2024-02-22T17:38:11.246Z,12.02
2024-02-22T17:40:38.364Z,12.00
2024-02-22T17:43:06.038Z,12.08
2024-02-22T17:45:32.939Z,12.02
2024-02-22T17:48:02.190Z,12.00
2024-02-22T17:50:29.382Z,12.04
2024-02-22T17:52:56.556Z,11.92
2024-02-22T17:55:24.541Z,11.97
2024-02-22T17:57:52.046Z,11.96
2024-02-22T18:00:25.390Z,11.96
2024-02-22T18:03:03.067Z,11.86
2024-02-22T18:05:32.401Z,11.94
2024-02-22T18:08:03.665Z,11.89
2024-02-22T18:10:31.062Z,11.85
2024-02-22T18:12:58.326Z,11.91
2024-02-22T18:15:31.251Z,11.85
2024-02-22T18:17:59.526Z,11.86
2024-02-22T18:20:32.138Z,11.85
2024-02-22T18:22:59.749Z,11.83
2024-02-22T18:25:27.239Z,11.80
2024-02-22T18:27:55.784Z,11.81
2024-02-22T18:30:23.773Z,11.79
2024-02-22T18:32:51.813Z,11.79
2024-02-22T18:35:18.819Z,11.80
2024-02-22T18:37:46.270Z,11.83
2024-02-22T18:40:13.407Z,11.76
2024-02-22T18:42:41.356Z,11.79
2024-02-22T18:45:08.615Z,11.73
2024-02-22T18:47:35.938Z,11.74
2024-02-22T18:50:04.996Z,11.77
2024-02-22T18:52:34.525Z,11.75
2024-02-22T18:55:02.180Z,11.75
2024-02-22T18:57:29.532Z,11.75
2024-02-22T18:59:56.397Z,11.75
2024-02-22T19:02:25.163Z,11.69
2024-02-22T19:04:52.034Z,11.73
2024-02-22T19:07:21.762Z,11.70
2024-02-22T19:09:49.348Z,11.80
2024-02-22T19:12:16.630Z,11.78
2024-02-22T19:14:43.530Z,11.76
2024-02-22T19:17:12.199Z,11.68
2024-02-22T19:19:40.145Z,11.69
2024-02-22T19:22:09.198Z,11.65
2024-02-22T19:24:36.138Z,11.65
2024-02-22T19:27:04.801Z,11.64
2024-02-22T19:29:32.010Z,11.65
2024-02-22T19:32:00.202Z,11.59
2024-02-22T19:34:28.096Z,11.64
2024-02-22T19:36:55.314Z,11.58
2024-02-22T19:39:22.698Z,11.59
2024-02-22T19:41:50.867Z,11.58
2024-02-22T19:44:19.927Z,11.62
2024-02-22T19:46:47.267Z,11.63
2024-02-22T19:49:14.329Z,11.63
2024-02-22T19:51:42.685Z,11.61
2024-02-22T19:54:21.003Z,11.61
2024-02-22T19:56:49.459Z,11.53
2024-02-22T19:59:16.300Z,11.60
2024-02-22T20:01:44.690Z,11.60
2024-02-22T20:04:11.905Z,11.57
2024-02-22T20:06:43.630Z,11.58
2024-02-22T20:09:10.942Z,11.50
2024-02-22T20:11:41.284Z,11.49
2024-02-22T20:14:09.096Z,11.50
2024-02-22T20:16:36.978Z,11.49
2024-02-22T20:19:03.959Z,11.49
2024-02-22T20:21:33.326Z,11.48
2024-02-22T20:24:02.908Z,11.49
2024-02-22T20:26:30.678Z,11.48
2024-02-22T20:28:57.626Z,11.57
2024-02-22T20:31:24.827Z,11.52
2024-02-22T20:33:52.447Z,11.50
2024-02-22T20:36:20.736Z,11.57
2024-02-22T20:38:47.777Z,11.56
2024-02-22T20:41:16.868Z,11.55
2024-02-22T20:43:44.010Z,11.57
2024-02-22T20:46:11.316Z,11.52
2024-02-22T20:48:42.258Z,11.56
2024-02-22T20:51:09.473Z,11.52
2024-02-22T20:53:37.973Z,11.59
2024-02-22T20:56:05.604Z,11.52
2024-02-22T20:58:32.661Z,11.58
2024-02-22T21:01:00.417Z,11.60
2024-02-22T21:03:29.017Z,11.58
2024-02-22T21:06:00.186Z,11.56
2024-02-22T21:08:27.954Z,11.61
2024-02-22T21:10:58.947Z,11.62
2024-02-22T21:13:25.924Z,11.57
2024-02-22T21:15:53.627Z,11.58
2024-02-22T21:18:20.724Z,11.60
2024-02-22T21:20:48.462Z,11.64
2024-02-22T21:23:15.377Z,11.60
2024-02-22T21:25:44.318Z,11.71
2024-02-22T21:28:11.945Z,11.67
2024-02-22T21:30:39.195Z,11.69
2024-02-22T21:33:06.293Z,11.61
2024-02-22T21:35:33.600Z,11.68
2024-02-22T21:38:05.805Z,11.76
2024-02-22T21:40:44.496Z,11.81
2024-02-22T21:43:11.382Z,11.74
2024-02-22T21:45:38.694Z,11.77
2024-02-22T21:48:10.728Z,11.74
2024-02-22T21:50:38.888Z,11.76
2024-02-22T21:53:08.224Z,11.80
2024-02-22T21:55:35.658Z,11.78
2024-02-22T21:58:02.500Z,11.83
2024-02-22T22:00:29.623Z,11.80
2024-02-22T22:02:56.507Z,11.75
2024-02-22T22:05:23.914Z,11.80
2024-02-22T22:07:51.448Z,11.81
2024-02-22T22:10:18.675Z,11.80
2024-02-22T22:12:45.532Z,11.81
2024-02-22T22:15:12.670Z,11.78
2024-02-22T22:17:42.415Z,11.81
2024-02-22T22:20:11.203Z,11.84
2024-02-22T22:22:38.017Z,11.83
2024-02-22T22:25:06.052Z,11.89
2024-02-22T22:27:32.906Z,11.87
2024-02-22T22:30:00.021Z,11.86
2024-02-22T22:32:27.044Z,11.91
2024-02-22T22:34:54.518Z,11.96
2024-02-22T22:37:22.892Z,11.92
2024-02-22T22:39:50.123Z,11.96
2024-02-22T22:42:16.970Z,11.97
2024-02-22T22:44:44.206Z,11.98
2024-02-22T22:47:11.262Z,12.00
2024-02-22T22:49:39.012Z,11.97
2024-02-22T22:52:06.116Z,11.99
2024-02-22T22:54:33.743Z,11.94
2024-02-22T22:57:00.688Z,11.87
2024-02-22T22:59:28.045Z,11.84
2024-02-22T23:01:58.565Z,11.86
2024-02-22T23:04:26.161Z,11.94
2024-02-22T23:06:53.406Z,11.95
2024-02-22T23:09:21.513Z,11.96
2024-02-22T23:11:48.434Z,11.90
2024-02-22T23:14:15.705Z,11.88
2024-02-22T23:16:42.785Z,11.84
2024-02-22T23:19:10.301Z,11.89
2024-02-22T23:21:37.681Z,11.85
2024-02-22T23:24:06.950Z,11.88
2024-02-22T23:26:33.978Z,11.84
2024-02-22T23:29:01.372Z,11.82
2024-02-22T23:31:31.074Z,11.90
2024-02-22T23:33:58.432Z,11.92
2024-02-22T23:36:25.481Z,11.92
2024-02-22T23:38:52.578Z,11.83
2024-02-22T23:41:25.501Z,11.74
2024-02-22T23:44:01.115Z,11.76
2024-02-22T23:46:28.570Z,11.78
2024-02-22T23:48:57.051Z,11.80
2024-02-22T23:51:24.117Z,11.78
2024-02-22T23:53:51.356Z,11.79
2024-02-22T23:56:18.252Z,11.85
2024-02-22T23:58:45.725Z,11.86
